Change the Weather History Date:

Sunday, March 3, 2013

  Actual Average (KRBD) Record (KRBD)
Temperature  
Mean Temperature 50 °F -  
Max Temperature 68 °F 60 °F 75 °F (2011)
Min Temperature 33 °F 41 °F 16 °F (2002)
Degree Days  
Heating Degree Days 14    
Growing Degree Days 0 (Base 50)    
Moisture  
Dew Point 28 °F    
Average Humidity 40    
Maximum Humidity 65    
Minimum Humidity 23    
Precipitation  
Precipitation 0.00 in - - ()
Sea Level Pressure  
Sea Level Pressure 30.05 in    
Wind  
Wind Speed 10 mph (SSE)    
Max Wind Speed 23 mph    
Max Gust Speed 32 mph    
Visibility 10 miles    
Events      
Averages and records for this station are not official NWS values.
T = Trace of Precipitation, MM = Missing Value Source: NWS Daily Summary

Daily Weather History Graph

Daily Weather History Graph

Search for Another Location

Airport or City:

Trip Planner

Search our weather history database for the weather conditions in past years. The results will help you decide how hot, cold, wet, or windy it might be!

Date:

Astronomy

Mar. 03, 2013 Rise Set
Actual Time 6:52 AM CST 6:26 PM CST
Civil Twilight 6:27 AM CST 6:51 PM CST
Nautical Twilight 5:59 AM CST 7:20 PM CST
Astronomical Twilight 5:31 AM CST 7:48 PM CST
Moon No Moon Rise 10:30 AM CST (3/3)
Length of Visible Light 12h 23m
Length of Day
11h 34m
Waning Gibbous, 63% of the Moon is Illuminated
Mar 3
Waning Gibbous
Mar 4
Last Quarter
Mar 11
New
Mar 19
First Quarter
Mar 27
Full

Hourly Weather History & Observations

Time (CST) Temp. Windchill Dew Point Humidity Pressure Visibility Wind Dir Wind Speed Gust Speed Precip Events Conditions
12:15 AM 37.4 °F 34.9 °F 23.0 °F 56% 30.25 in 10.0 mi South 3.5 mph - N/A   Clear
1:15 AM 35.6 °F 31.7 °F 23.0 °F 60% 30.24 in 10.0 mi SSE 4.6 mph - N/A   Clear
1:35 AM 35.6 °F 31.7 °F 23.0 °F 60% 30.24 in 10.0 mi South 4.6 mph - N/A   Clear
1:55 AM 35.6 °F 31.7 °F 23.0 °F 60% 30.24 in 10.0 mi South 4.6 mph - N/A   Clear
2:15 AM 35.6 °F 32.8 °F 23.0 °F 60% 30.24 in 10.0 mi South 3.5 mph - N/A   Clear
2:35 AM 33.8 °F 30.8 °F 23.0 °F 65% 30.23 in 10.0 mi SSE 3.5 mph - N/A   Clear
2:55 AM 35.6 °F 32.8 °F 23.0 °F 60% 30.23 in 10.0 mi SSE 3.5 mph - N/A   Clear
3:15 AM 33.8 °F 30.8 °F 23.0 °F 65% 30.22 in 10.0 mi SSE 3.5 mph - N/A   Clear
3:35 AM 35.6 °F 31.7 °F 23.0 °F 60% 30.21 in 10.0 mi SSE 4.6 mph - N/A   Clear
3:55 AM 33.8 °F 29.6 °F 23.0 °F 65% 30.20 in 10.0 mi SE 4.6 mph - N/A   Clear
4:15 AM 33.8 °F 29.6 °F 23.0 °F 65% 30.20 in 10.0 mi SSE 4.6 mph - N/A   Clear
4:35 AM 33.8 °F 28.6 °F 23.0 °F 65% 30.20 in 10.0 mi South 5.8 mph - N/A   Clear
5:15 AM 33.8 °F 30.8 °F 23.0 °F 65% 30.20 in 10.0 mi SSE 3.5 mph - N/A   Clear
5:35 AM 33.8 °F 29.6 °F 23.0 °F 65% 30.20 in 10.0 mi SSE 4.6 mph - N/A   Clear
5:55 AM 33.8 °F 28.6 °F 23.0 °F 65% 30.20 in 10.0 mi SSE 5.8 mph - N/A   Clear
6:35 AM 37.4 °F 30.3 °F 23.0 °F 56% 30.20 in 10.0 mi South 10.4 mph - N/A   Clear
7:15 AM 35.6 °F 28.6 °F 23.0 °F 60% 30.20 in 10.0 mi SSE 9.2 mph - N/A   Clear
7:35 AM 37.4 °F 30.8 °F 23.0 °F 56% 30.19 in 10.0 mi SSE 9.2 mph - N/A   Clear
7:55 AM 39.2 °F 31.6 °F 23.0 °F 52% 30.19 in 10.0 mi South 12.7 mph - N/A   Clear
8:15 AM 42.8 °F 36.2 °F 23.0 °F 46% 30.19 in 10.0 mi South 12.7 mph - N/A   Clear
8:35 AM 44.6 °F 38.4 °F 23.0 °F 43% 30.19 in 10.0 mi SSE 12.7 mph 19.6 mph N/A   Clear
8:55 AM 46.4 °F 40.4 °F 23.0 °F 40% 30.18 in 10.0 mi South 13.8 mph 19.6 mph N/A   Clear
9:15 AM 48.2 °F - 23.0 °F 37% 30.18 in 10.0 mi South 16.1 mph 23.0 mph N/A   Clear
9:35 AM 50.0 °F - 23.0 °F 35% 30.18 in 10.0 mi SSE 15.0 mph 24.2 mph N/A   Clear
9:55 AM 51.8 °F - 23.0 °F 33% 30.17 in 10.0 mi South 19.6 mph 25.3 mph N/A   Clear
10:15 AM 53.6 °F - 23.0 °F 30% 30.17 in 10.0 mi South 17.3 mph 24.2 mph N/A   Clear
10:35 AM 53.6 °F - 23.0 °F 30% 30.15 in 10.0 mi South 19.6 mph 24.2 mph N/A   Clear
10:55 AM 55.4 °F - 23.0 °F 29% 30.15 in 10.0 mi South 18.4 mph - N/A   Clear
11:15 AM 55.4 °F - 23.0 °F 29% 30.14 in 10.0 mi South 15.0 mph 24.2 mph N/A   Clear
11:35 AM 59.0 °F - 26.6 °F 29% 30.11 in 10.0 mi South 18.4 mph 23.0 mph N/A   Clear
11:55 AM 60.8 °F - 26.6 °F 27% 30.10 in 10.0 mi South 15.0 mph 20.7 mph N/A   Clear
12:15 PM 60.8 °F - 26.6 °F 27% 30.09 in 10.0 mi South 16.1 mph - N/A   Clear
12:35 PM 62.6 °F - 26.6 °F 26% 30.08 in 10.0 mi SSW 17.3 mph 21.9 mph N/A   Clear
12:55 PM 62.6 °F - 26.6 °F 26% 30.05 in 10.0 mi SSE 16.1 mph 23.0 mph N/A   Clear
1:15 PM 64.4 °F - 28.4 °F 26% 30.05 in 10.0 mi South 17.3 mph 23.0 mph N/A   Clear
1:35 PM 64.4 °F - 28.4 °F 26% 30.04 in 10.0 mi South 12.7 mph - N/A   Clear
1:55 PM 66.2 °F - 28.4 °F 24% 30.02 in 10.0 mi South 16.1 mph 23.0 mph N/A   Clear
2:15 PM 68.0 °F - 28.4 °F 23% 30.00 in 10.0 mi South 17.3 mph 24.2 mph N/A   Clear
2:35 PM 68.0 °F - 28.4 °F 23% 29.98 in 10.0 mi SSE 20.7 mph 26.5 mph N/A   Clear
2:55 PM 68.0 °F - 30.2 °F 24% 29.97 in 10.0 mi South 19.6 mph 27.6 mph N/A   Clear
3:15 PM 68.0 °F - 30.2 °F 24% 29.95 in 10.0 mi South 23.0 mph 31.1 mph N/A   Clear
3:35 PM 68.0 °F - 30.2 °F 24% 29.94 in 10.0 mi South 18.4 mph 29.9 mph N/A   Clear
3:55 PM 68.0 °F - 32.0 °F 26% 29.93 in 10.0 mi South 21.9 mph 28.8 mph N/A   Clear
4:15 PM 68.0 °F - 32.0 °F 26% 29.92 in 10.0 mi SSE 21.9 mph 26.5 mph N/A   Clear
4:35 PM 68.0 °F - 32.0 °F 26% 29.92 in 10.0 mi SSE 20.7 mph 32.2 mph N/A   Clear
4:55 PM 68.0 °F - 32.0 °F 26% 29.90 in 10.0 mi South 20.7 mph 29.9 mph N/A   Clear
5:15 PM 68.0 °F - 32.0 °F 26% 29.90 in 10.0 mi South 19.6 mph 27.6 mph N/A   Clear
5:35 PM 68.0 °F - 32.0 °F 26% 29.89 in 10.0 mi SSE 19.6 mph 28.8 mph N/A   Clear
5:55 PM 66.2 °F - 32.0 °F 28% 29.89 in 10.0 mi South 16.1 mph 26.5 mph N/A   Clear
6:15 PM 64.4 °F - 32.0 °F 30% 29.89 in 10.0 mi SSE 13.8 mph 23.0 mph N/A   Clear
6:35 PM 64.4 °F - 32.0 °F 30% 29.88 in 10.0 mi SSE 16.1 mph 21.9 mph N/A   Clear
6:55 PM 62.6 °F - 32.0 °F 32% 29.88 in 10.0 mi SSE 16.1 mph - N/A   Clear
7:15 PM 62.6 °F - 32.0 °F 32% 29.87 in 10.0 mi SSE 15.0 mph 23.0 mph N/A   Clear
7:35 PM 60.8 °F - 32.0 °F 34% 29.86 in 10.0 mi SSE 16.1 mph 20.7 mph N/A   Clear
7:55 PM 60.8 °F - 32.0 °F 34% 29.86 in 10.0 mi SSE 15.0 mph 21.9 mph N/A   Clear
8:15 PM 62.6 °F - 32.0 °F 32% 29.86 in 10.0 mi SSE 18.4 mph 26.5 mph N/A   Clear
8:35 PM 62.6 °F - 33.8 °F 34% 29.86 in 10.0 mi SSE 17.3 mph 23.0 mph N/A   Clear
8:55 PM 60.8 °F - 33.8 °F 36% 29.85 in 10.0 mi SSE 16.1 mph 21.9 mph N/A   Clear
9:15 PM 60.8 °F - 33.8 °F 36% 29.85 in 10.0 mi SSE 13.8 mph 21.9 mph N/A   Clear
9:35 PM 60.8 °F - 35.6 °F 39% 29.85 in 10.0 mi South 17.3 mph 24.2 mph N/A   Clear
9:55 PM 60.8 °F - 35.6 °F 39% 29.85 in 10.0 mi South 15.0 mph 21.9 mph N/A   Clear
10:15 PM 60.8 °F - 35.6 °F 39% 29.85 in 10.0 mi South 16.1 mph 25.3 mph N/A   Clear
10:35 PM 59.0 °F - 35.6 °F 42% 29.85 in 10.0 mi South 15.0 mph 24.2 mph N/A   Clear
10:55 PM 59.0 °F - 37.4 °F 45% 29.85 in 10.0 mi South 17.3 mph 23.0 mph N/A   Clear
11:15 PM 59.0 °F - 37.4 °F 45% 29.85 in 10.0 mi SSE 17.3 mph 21.9 mph N/A   Clear
11:35 PM 57.2 °F - 39.2 °F 51% 29.84 in 10.0 mi South 15.0 mph 21.9 mph N/A   Clear